Time;durP1;ratioP1;P1;durP2;ratioP2;P2;SDS_P1;SDS_P2;PMS_P1;PMS_P2;Temp;Humidity;BMP_temperature;BMP_pressure;BME280_temperature;BME280_humidity;BME280_pressure;Samples;Min_cycle;Max_cycle;Signal;HPM_P1;HPM_P2
2023/05/10 00:01:27;;;;;;;11.82;8.48;;;;;;;14.32;100.00;100717.94;5040034;28;20052;-65
2023/05/10 00:03:54;;;;;;;11.38;8.52;;;;;;;14.33;100.00;100724.25;5053383;28;20040;-65
2023/05/10 00:06:22;;;;;;;9.80;7.65;;;;;;;14.33;100.00;100722.31;5052777;28;20048;-64
2023/05/10 00:08:50;;;;;;;11.82;8.10;;;;;;;14.34;100.00;100720.41;5038049;28;20123;-63
2023/05/10 00:11:17;;;;;;;8.90;7.15;;;;;;;14.33;100.00;100714.09;5051237;28;20045;-64
2023/05/10 00:13:48;;;;;;;10.15;7.50;;;;;;;14.31;100.00;100715.50;5049987;28;20047;-64
2023/05/10 00:16:16;;;;;;;9.95;7.63;;;;;;;14.29;100.00;100713.06;5033550;28;20053;-64
2023/05/10 00:18:44;;;;;;;11.23;7.97;;;;;;;14.28;100.00;100716.91;5032224;28;20049;-65
2023/05/10 00:21:12;;;;;;;11.73;8.52;;;;;;;14.27;100.00;100720.75;5033282;28;20099;-63
2023/05/10 00:23:39;;;;;;;11.15;8.32;;;;;;;14.25;100.00;100718.31;5048241;28;20045;-66
2023/05/10 00:26:07;;;;;;;11.38;8.85;;;;;;;14.25;100.00;100725.72;5049276;28;20085;-64
2023/05/10 00:28:38;;;;;;;13.27;9.57;;;;;;;14.24;100.00;100713.94;5033339;28;20136;-64
2023/05/10 00:31:05;;;;;;;11.90;9.13;;;;;;;14.22;100.00;100718.09;5034278;28;20112;-66
2023/05/10 00:33:33;;;;;;;12.35;10.20;;;;;;;14.22;100.00;100718.91;5046050;28;20486;-65
2023/05/10 00:36:00;;;;;;;12.35;10.38;;;;;;;14.21;100.00;100711.78;5054590;28;20053;-64
2023/05/10 00:38:28;;;;;;;13.73;10.73;;;;;;;14.20;100.00;100720.31;5054014;28;20094;-64
2023/05/10 00:40:56;;;;;;;16.25;10.77;;;;;;;14.21;100.00;100713.72;5057190;28;20052;-65
2023/05/10 00:43:29;;;;;;;13.95;11.15;;;;;;;14.22;100.00;100709.88;5062550;28;20378;-64
2023/05/10 00:45:57;;;;;;;15.93;12.30;;;;;;;14.19;100.00;100708.53;5075857;28;20045;-64
2023/05/10 00:48:24;;;;;;;17.50;12.30;;;;;;;14.20;100.00;100709.34;5071914;28;20067;-63
2023/05/10 00:50:52;;;;;;;17.60;12.80;;;;;;;14.19;100.00;100714.03;5039517;28;20079;-64
2023/05/10 00:53:20;;;;;;;16.63;12.82;;;;;;;14.17;100.00;100704.47;5070075;28;20052;-65
2023/05/10 00:55:48;;;;;;;16.13;12.63;;;;;;;14.17;100.00;100709.94;5077312;28;20087;-64
2023/05/10 00:58:15;;;;;;;18.30;12.95;;;;;;;14.15;100.00;100712.16;5059130;28;20127;-65
2023/05/10 01:00:44;;;;;;;15.40;12.07;;;;;;;14.14;100.00;100716.84;5040638;28;20098;-65
2023/05/10 01:03:11;;;;;;;15.20;12.07;;;;;;;14.12;100.00;100712.72;5056751;28;20099;-65
2023/05/10 01:05:39;;;;;;;17.92;12.88;;;;;;;14.14;100.00;100716.84;5056886;28;20546;-64
2023/05/10 01:08:08;;;;;;;18.42;12.93;;;;;;;14.13;100.00;100711.63;5055103;28;20049;-64
2023/05/10 01:10:36;;;;;;;18.73;13.60;;;;;;;14.12;100.00;100705.34;5037761;28;20053;-64
2023/05/10 01:13:04;;;;;;;18.23;13.27;;;;;;;14.13;100.00;100714.38;5055941;28;20049;-64
2023/05/10 01:15:32;;;;;;;19.45;13.98;;;;;;;14.10;100.00;100714.97;5055220;28;20059;-65
2023/05/10 01:18:00;;;;;;;17.33;13.25;;;;;;;14.09;100.00;100716.88;5055044;28;20095;-64
2023/05/10 01:20:36;;;;;;;21.63;14.05;;;;;;;14.09;100.00;100713.31;5046435;28;20075;-64
2023/05/10 01:23:07;;;;;;;17.33;13.27;;;;;;;14.09;100.00;100718.81;5062448;28;20459;-63
2023/05/10 01:26:22;;;;;;;20.85;13.65;;;;;;;14.09;100.00;100718.81;5036227;28;20053;-65
2023/05/10 01:29:11;;;;;;;22.45;14.45;;;;;;;14.07;100.00;100717.19;5055704;28;20565;-65
2023/05/10 01:32:16;;;;;;;21.50;14.70;;;;;;;14.06;100.00;100718.28;5055351;28;20098;-64
2023/05/10 01:35:05;;;;;;;22.48;14.57;;;;;;;14.04;100.00;100719.69;5054845;28;20045;-64
2023/05/10 01:37:50;;;;;;;19.60;14.38;;;;;;;14.04;100.00;100711.47;5054142;28;20037;-66
2023/05/10 01:40:31;;;;;;;19.42;14.50;;;;;;;14.04;100.00;100716.94;5039077;28;20075;-65
2023/05/10 01:43:11;;;;;;;19.77;15.07;;;;;;;14.02;100.00;100714.53;5056411;28;20063;-64
2023/05/10 01:46:04;;;;;;;20.17;15.55;;;;;;;14.01;100.00;100718.34;5054700;28;20132;-64
2023/05/10 01:48:33;;;;;;;20.42;14.93;;;;;;;14.01;100.00;100718.34;5056252;28;20053;-63
2023/05/10 01:51:00;;;;;;;20.75;14.77;;;;;;;14.03;100.00;100718.88;5057240;28;20048;-64
2023/05/10 01:53:28;;;;;;;26.20;16.75;;;;;;;14.02;100.00;100716.41;5073855;28;20127;-63
2023/05/10 01:55:57;;;;;;;21.92;16.15;;;;;;;14.01;100.00;100723.84;5073517;28;20044;-64
2023/05/10 01:58:30;;;;;;;21.08;15.95;;;;;;;13.99;100.00;100723.31;5049805;28;20049;-61
2023/05/10 02:01:00;;;;;;;21.17;15.57;;;;;;;13.99;100.00;100725.22;5053748;28;20504;-60
2023/05/10 02:03:29;;;;;;;26.02;17.65;;;;;;;13.98;100.00;100727.16;5035123;28;20072;-64
2023/05/10 02:05:58;;;;;;;24.25;17.23;;;;;;;13.99;100.00;100725.22;5055026;28;20067;-64
2023/05/10 02:08:26;;;;;;;23.00;17.55;;;;;;;13.98;100.00;100729.91;5053762;28;20120;-65
2023/05/10 02:10:55;;;;;;;23.25;17.27;;;;;;;14.00;100.00;100733.16;5056121;28;20472;-65
2023/05/10 02:13:24;;;;;;;22.25;17.83;;;;;;;14.01;100.00;100731.25;5075300;28;20045;-65
2023/05/10 02:15:54;;;;;;;23.52;18.35;;;;;;;14.00;100.00;100727.69;5057987;28;20041;-65
2023/05/10 02:18:23;;;;;;;28.17;21.00;;;;;;;13.99;100.00;100731.53;5070180;28;20498;-64
2023/05/10 02:20:52;;;;;;;29.33;21.02;;;;;;;13.97;100.00;100733.72;5037445;28;20049;-65
2023/05/10 02:23:20;;;;;;;30.48;22.52;;;;;;;13.98;100.00;100734.56;5054668;28;20053;-64
2023/05/10 02:25:52;;;;;;;31.00;23.58;;;;;;;13.96;100.00;100740.34;5038086;28;20041;-65
2023/05/10 02:28:23;;;;;;;34.35;25.33;;;;;;;13.95;100.00;100735.97;5054115;28;20056;-65
2023/05/10 02:30:52;;;;;;;32.95;25.50;;;;;;;13.96;100.00;100742.25;5057143;28;20044;-65
2023/05/10 02:33:20;;;;;;;36.72;26.60;;;;;;;13.96;100.00;100743.06;5072640;28;20378;-65
2023/05/10 02:35:50;;;;;;;34.58;25.77;;;;;;;13.94;100.00;100739.81;5055001;28;20438;-64
2023/05/10 02:38:20;;;;;;;34.10;26.83;;;;;;;13.95;100.00;100741.47;5037269;28;20055;-64
2023/05/10 02:40:48;;;;;;;37.55;27.05;;;;;;;13.96;100.00;100743.06;5035086;28;20053;-64
2023/05/10 02:43:17;;;;;;;38.33;26.75;;;;;;;13.97;100.00;100738.41;5057414;28;20072;-64
2023/05/10 02:45:47;;;;;;;38.40;29.38;;;;;;;13.94;100.00;100734.31;5073594;28;20131;-64
2023/05/10 02:48:16;;;;;;;38.20;28.30;;;;;;;13.93;100.00;100743.66;5073802;28;20036;-64
2023/05/10 02:50:51;;;;;;;38.83;27.90;;;;;;;13.93;100.00;100735.44;5012620;28;20432;-64
2023/05/10 02:53:30;;;;;;;39.55;28.60;;;;;;;13.92;100.00;100733.81;5053665;28;20048;-65
2023/05/10 02:56:00;;;;;;;42.08;28.83;;;;;;;13.89;100.00;100737.13;5053089;28;20115;-64
2023/05/10 02:58:28;;;;;;;36.92;28.30;;;;;;;13.88;100.00;100729.19;5053949;28;20481;-65
2023/05/10 03:00:56;;;;;;;37.20;28.30;;;;;;;13.89;100.00;100734.41;5037561;28;20076;-65
2023/05/10 03:03:24;;;;;;;39.17;28.92;;;;;;;13.87;100.00;100731.13;5053711;28;20056;-64
2023/05/10 03:05:55;;;;;;;41.78;29.25;;;;;;;13.85;100.00;100736.91;5052493;28;20401;-64
2023/05/10 03:08:24;;;;;;;38.08;28.33;;;;;;;13.82;100.00;100745.69;5053347;28;20049;-64
2023/05/10 03:11:09;;;;;;;36.35;28.13;;;;;;;13.82;100.00;100731.19;5051256;28;20056;-64
2023/05/10 03:13:59;;;;;;;35.50;28.50;;;;;;;13.82;100.00;100739.41;5020241;28;20405;-65
2023/05/10 03:16:33;;;;;;;36.50;27.55;;;;;;;13.84;100.00;100737.19;5053173;28;20102;-65
2023/05/10 03:19:12;;;;;;;36.28;28.58;;;;;;;13.86;100.00;100737.72;5036938;28;20095;-64
2023/05/10 03:21:44;;;;;;;37.47;28.10;;;;;;;13.88;100.00;100741.00;5035578;28;20045;-65
2023/05/10 03:24:14;;;;;;;37.00;27.55;;;;;;;13.87;100.00;100739.34;5036506;28;20122;-64
2023/05/10 03:26:45;;;;;;;38.95;29.20;;;;;;;13.88;100.00;100741.00;5036778;28;20119;-65
2023/05/10 03:29:17;;;;;;;35.78;27.48;;;;;;;13.87;100.00;100742.09;5054425;28;20048;-65
2023/05/10 03:31:46;;;;;;;37.38;28.50;;;;;;;13.87;100.00;100744.81;5035568;28;20075;-64
2023/05/10 03:34:15;;;;;;;37.08;27.98;;;;;;;13.87;100.00;100750.31;5035961;28;20072;-64
2023/05/10 03:36:43;;;;;;;39.00;30.02;;;;;;;13.87;100.00;100744.81;5035966;28;20127;-64
2023/05/10 03:39:11;;;;;;;36.38;29.63;;;;;;;13.85;100.00;100755.25;5052187;28;20072;-64
2023/05/10 03:41:38;;;;;;;37.80;28.80;;;;;;;13.84;100.00;100764.59;5066144;28;20044;-64
2023/05/10 03:44:06;;;;;;;36.33;27.95;;;;;;;13.83;100.00;100754.75;5054354;28;20123;-64
2023/05/10 03:46:33;;;;;;;39.00;29.13;;;;;;;13.83;100.00;100749.28;5054134;28;20464;-64
2023/05/10 03:49:03;;;;;;;43.10;30.88;;;;;;;13.82;100.00;100758.56;5052729;28;20041;-64
2023/05/10 03:51:30;;;;;;;42.13;29.98;;;;;;;13.82;100.00;100758.56;5072055;28;20131;-63
2023/05/10 03:53:59;;;;;;;42.72;29.67;;;;;;;13.82;100.00;100764.06;5022771;28;20065;-65
2023/05/10 03:56:26;;;;;;;35.25;28.60;;;;;;;13.82;100.00;100764.06;5052519;28;20120;-65
2023/05/10 03:58:54;;;;;;;38.53;29.58;;;;;;;13.80;100.00;100767.06;5053633;28;20098;-65
2023/05/10 04:01:22;;;;;;;37.58;29.85;;;;;;;13.80;100.00;100771.75;5065078;28;20056;-65
2023/05/10 04:03:49;;;;;;;36.78;30.10;;;;;;;13.79;100.00;100770.13;5063777;28;20037;-65
2023/05/10 04:06:17;;;;;;;41.00;30.02;;;;;;;13.77;100.00;100772.34;5048250;28;20191;-65
2023/05/10 04:08:45;;;;;;;44.83;33.53;;;;;;;13.77;100.00;100772.34;5050665;28;20052;-67
2023/05/10 04:11:13;;;;;;;43.72;30.85;;;;;;;13.76;100.00;100770.72;5050296;28;20127;-65
2023/05/10 04:13:42;;;;;;;40.00;31.48;;;;;;;13.75;100.00;100763.59;5059744;28;20332;-65
2023/05/10 04:16:10;;;;;;;39.63;31.48;;;;;;;13.74;100.00;100778.41;5031978;28;20072;-62
2023/05/10 04:18:39;;;;;;;39.17;31.88;;;;;;;13.72;100.00;100780.59;5043992;28;20048;-63
2023/05/10 04:21:13;;;;;;;39.58;30.98;;;;;;;13.69;100.00;100778.47;5052132;28;20080;-63
2023/05/10 04:23:41;;;;;;;39.88;30.13;;;;;;;13.68;100.00;100774.06;5051139;28;20523;-64
2023/05/10 04:26:09;;;;;;;40.97;30.10;;;;;;;13.70;100.00;100778.16;5052366;28;20393;-64
2023/05/10 04:28:37;;;;;;;39.58;30.40;;;;;;;13.73;100.00;100780.28;5053472;28;20107;-64
2023/05/10 04:31:08;;;;;;;39.47;30.13;;;;;;;13.74;100.00;100776.47;5053208;28;20053;-63
2023/05/10 04:33:37;;;;;;;38.65;29.17;;;;;;;13.73;100.00;100772.09;5052823;28;20095;-64
2023/05/10 04:36:05;;;;;;;33.88;27.05;;;;;;;13.73;100.00;100782.22;5030957;28;20494;-64
2023/05/10 04:38:33;;;;;;;36.30;27.40;;;;;;;13.71;100.00;100784.44;5048536;28;20072;-63
2023/05/10 04:41:11;;;;;;;31.85;25.25;;;;;;;13.70;100.00;100777.34;5055080;28;20045;-63
2023/05/10 04:43:39;;;;;;;33.15;25.48;;;;;;;13.68;100.00;100780.34;5058369;28;20450;-65
2023/05/10 04:46:07;;;;;;;37.28;25.80;;;;;;;13.67;100.00;100780.66;5051579;28;20058;-62
2023/05/10 04:48:35;;;;;;;40.17;27.02;;;;;;;13.62;100.00;100787.81;5052793;28;20636;-63
2023/05/10 04:51:03;;;;;;;31.65;24.08;;;;;;;13.59;100.00;100784.84;5049727;28;20408;-63
2023/05/10 04:53:31;;;;;;;36.05;25.42;;;;;;;13.57;100.00;100790.59;5053387;28;20053;-64
2023/05/10 04:55:59;;;;;;;35.33;24.33;;;;;;;13.52;100.00;100785.19;5052999;28;20132;-63
2023/05/10 04:58:27;;;;;;;39.72;26.33;;;;;;;13.50;100.00;100795.59;5067728;28;20070;-64
2023/05/10 05:00:54;;;;;;;30.83;23.20;;;;;;;13.50;100.00;100792.88;5053129;28;20048;-64
2023/05/10 05:03:22;;;;;;;35.78;25.35;;;;;;;13.50;100.00;100795.59;4703687;28;10000507;-65
2023/05/10 05:05:50;;;;;;;39.30;26.50;;;;;;;13.47;100.00;100790.72;5047578;28;20485;-64
2023/05/10 05:08:18;;;;;;;38.47;25.00;;;;;;;13.42;100.00;100797.03;5048133;28;20051;-64
2023/05/10 05:10:45;;;;;;;37.25;24.92;;;;;;;13.34;100.00;100802.31;5048251;28;20049;-64
2023/05/10 05:13:13;;;;;;;37.28;23.90;;;;;;;13.36;100.00;100800.09;5047745;28;20045;-64
2023/05/10 05:15:41;;;;;;;35.88;23.20;;;;;;;13.38;100.00;100804.19;5057558;28;20053;-64
2023/05/10 05:18:09;;;;;;;34.00;22.17;;;;;;;13.43;100.00;100808.81;5038395;28;20540;-65
2023/05/10 05:20:36;;;;;;;35.28;23.02;;;;;;;13.39;100.00;100805.00;5052212;28;20052;-65
2023/05/10 05:23:04;;;;;;;31.80;23.55;;;;;;;13.35;100.00;100812.16;5052861;28;20060;-62
2023/05/10 05:25:32;;;;;;;35.20;24.30;;;;;;;13.33;100.00;100808.91;5050542;28;20107;-64
2023/05/10 05:28:00;;;;;;;34.08;23.67;;;;;;;13.32;100.00;100808.06;5050111;28;20090;-64
2023/05/10 05:30:27;;;;;;;37.22;23.70;;;;;;;13.31;100.00;100811.09;5035263;28;20059;-64
2023/05/10 05:32:55;;;;;;;34.17;23.98;;;;;;;13.29;100.00;100816.03;5052865;28;20036;-65
2023/05/10 05:35:23;;;;;;;29.80;20.80;;;;;;;13.32;100.00;100816.28;5055411;28;20041;-65
2023/05/10 05:37:50;;;;;;;30.75;20.48;;;;;;;13.36;100.00;100811.88;5052055;28;20056;-65
2023/05/10 05:40:18;;;;;;;30.83;21.15;;;;;;;13.38;100.00;100815.13;5042856;28;20048;-64
2023/05/10 05:42:46;;;;;;;32.40;22.15;;;;;;;13.40;100.00;100815.66;5073332;28;20106;-66
2023/05/10 05:45:14;;;;;;;30.55;22.98;;;;;;;13.42;100.00;100815.38;5073957;28;20040;-65
2023/05/10 05:47:42;;;;;;;31.63;22.23;;;;;;;13.42;100.00;100826.31;5073312;28;20063;-65
2023/05/10 05:50:10;;;;;;;29.70;21.33;;;;;;;13.42;100.00;100815.38;5041665;28;20076;-63
2023/05/10 05:52:38;;;;;;;31.67;22.85;;;;;;;13.44;100.00;100818.63;5067366;28;20052;-64
2023/05/10 05:55:06;;;;;;;28.40;20.38;;;;;;;13.48;100.00;100822.44;5060989;28;20489;-66
2023/05/10 05:57:34;;;;;;;30.13;20.42;;;;;;;13.50;100.00;100820.25;5054008;28;20049;-64
2023/05/10 06:00:02;;;;;;;28.80;21.63;;;;;;;13.51;100.00;100819.13;5056601;28;20045;-64
2023/05/10 06:02:39;;;;;;;33.63;22.90;;;;;;;13.51;100.00;100823.78;5051231;28;20059;-60
2023/05/10 06:05:07;;;;;;;34.17;24.23;;;;;;;13.52;100.00;100820.78;5049355;28;20124;-64
2023/05/10 06:07:35;;;;;;;36.03;25.08;;;;;;;13.46;100.00;100827.38;5057391;28;20053;-64
2023/05/10 06:10:03;;;;;;;35.13;24.75;;;;;;;13.46;100.00;100829.31;5050178;28;20043;-65
2023/05/10 06:12:30;;;;;;;33.20;24.75;;;;;;;13.45;100.00;100831.22;5053273;28;20135;-66
2023/05/10 06:14:58;;;;;;;40.78;25.77;;;;;;;13.46;100.00;100838.31;5055462;28;20056;-66
2023/05/10 06:17:26;;;;;;;35.28;23.15;;;;;;;13.46;100.00;100838.31;5053354;28;20045;-65
2023/05/10 06:19:54;;;;;;;35.10;22.92;;;;;;;13.49;100.00;100840.50;5056899;28;20397;-65
2023/05/10 06:22:22;;;;;;;33.83;23.23;;;;;;;13.49;100.00;100853.38;5055580;28;20072;-65
2023/05/10 06:24:50;;;;;;;32.42;22.52;;;;;;;13.51;100.00;100851.97;5055313;28;20051;-64
2023/05/10 06:27:18;;;;;;;26.95;19.35;;;;;;;13.57;100.00;100856.31;5055124;28;20053;-65
2023/05/10 06:29:46;;;;;;;31.60;20.98;;;;;;;13.59;100.00;100858.78;5055297;28;20041;-65
2023/05/10 06:32:14;;;;;;;26.70;20.83;;;;;;;13.60;100.00;100861.19;5054593;28;20127;-65
2023/05/10 06:34:43;;;;;;;33.08;21.10;;;;;;;13.58;100.00;100863.41;5055972;28;20044;-66
2023/05/10 06:37:10;;;;;;;30.15;21.08;;;;;;;13.57;100.00;100856.31;5053602;28;20057;-64
2023/05/10 06:39:38;;;;;;;26.08;18.08;;;;;;;13.57;100.00;100855.50;5055356;28;20056;-64
2023/05/10 06:42:06;;;;;;;27.45;19.70;;;;;;;13.59;100.00;100858.78;5054056;28;20118;-65
2023/05/10 06:44:33;;;;;;;33.20;19.67;;;;;;;13.60;100.00;100863.13;5054714;28;20055;-66
2023/05/10 06:47:01;;;;;;;24.08;19.15;;;;;;;13.62;100.00;100860.94;5055246;28;20052;-66
2023/05/10 06:49:29;;;;;;;29.05;21.52;;;;;;;13.63;100.00;100866.09;5054692;28;20045;-65
2023/05/10 06:51:56;;;;;;;30.38;22.98;;;;;;;13.62;100.00;100867.22;5053716;28;20048;-65
2023/05/10 06:54:24;;;;;;;26.83;21.05;;;;;;;13.59;100.00;100865.06;5054892;28;20128;-66
2023/05/10 06:56:52;;;;;;;31.35;22.60;;;;;;;13.59;100.00;100876.00;5034938;28;20076;-66
2023/05/10 06:59:21;;;;;;;27.33;18.52;;;;;;;13.60;100.00;100866.69;5034764;28;20442;-65
2023/05/10 07:01:49;;;;;;;32.17;21.42;;;;;;;13.60;100.00;100872.16;5017155;28;20124;-64
2023/05/10 07:04:17;;;;;;;34.08;22.98;;;;;;;13.60;100.00;100880.38;5033367;28;20049;-65
2023/05/10 07:06:46;;;;;;;33.28;22.85;;;;;;;13.58;100.00;100888.03;5033538;28;20052;-65
2023/05/10 07:09:13;;;;;;;30.70;22.77;;;;;;;13.58;100.00;100888.03;5049513;28;20067;-64
2023/05/10 07:11:41;;;;;;;34.08;23.13;;;;;;;13.57;100.00;100882.88;5054578;28;20052;-64
2023/05/10 07:14:08;;;;;;;32.85;24.92;;;;;;;13.54;100.00;100888.91;5054277;28;20045;-65
2023/05/10 07:16:36;;;;;;;34.25;24.92;;;;;;;13.51;100.00;100893.03;5054172;28;20049;-65
2023/05/10 07:19:05;;;;;;;34.28;25.25;;;;;;;13.51;100.00;100882.06;5036354;28;20055;-66
2023/05/10 07:21:32;;;;;;;37.30;25.05;;;;;;;13.51;100.00;100889.47;5054308;28;20099;-65
2023/05/10 07:24:00;;;;;;;39.00;25.00;;;;;;;13.48;100.00;100890.88;5053307;28;20056;-64
2023/05/10 07:26:28;;;;;;;33.17;24.15;;;;;;;13.48;100.00;100896.34;5053257;28;20095;-64
2023/05/10 07:28:56;;;;;;;32.72;25.90;;;;;;;13.48;100.00;100901.81;5053127;28;20139;-64
2023/05/10 07:31:24;;;;;;;33.50;24.80;;;;;;;13.48;100.00;100904.56;5070407;28;20119;-65
2023/05/10 07:33:51;;;;;;;35.60;25.55;;;;;;;13.49;100.00;100902.63;5073023;28;20080;-65
2023/05/10 07:36:19;;;;;;;36.95;25.85;;;;;;;13.52;100.00;100902.09;5072341;28;20114;-66
2023/05/10 07:38:47;;;;;;;41.22;27.08;;;;;;;13.54;100.00;100905.31;5072839;28;20401;-65
2023/05/10 07:41:15;;;;;;;37.38;26.88;;;;;;;13.51;100.00;100901.25;5071009;28;20515;-66
2023/05/10 07:43:42;;;;;;;39.22;25.95;;;;;;;13.51;100.00;100908.66;5072798;28;20040;-65
2023/05/10 07:46:10;;;;;;;32.65;24.42;;;;;;;13.49;100.00;100908.09;5071249;28;20120;-64
2023/05/10 07:48:38;;;;;;;33.53;25.67;;;;;;;13.41;100.00;100928.69;5052387;28;20056;-66
2023/05/10 07:51:07;;;;;;;33.78;26.42;;;;;;;13.37;100.00;100925.72;5053586;28;20413;-66
2023/05/10 07:53:35;;;;;;;35.55;24.98;;;;;;;13.35;100.00;100927.13;5054840;28;21056;-65
2023/05/10 07:56:21;;;;;;;35.25;25.63;;;;;;;13.35;100.00;100924.38;5036387;28;20123;-65
2023/05/10 07:58:48;;;;;;;36.47;26.15;;;;;;;13.37;100.00;100923.00;5053709;28;20501;-66
2023/05/10 08:01:16;;;;;;;33.50;22.98;;;;;;;13.38;100.00;100918.31;5036378;28;20052;-65
2023/05/10 08:03:45;;;;;;;37.17;25.15;;;;;;;13.41;100.00;100932.25;5053669;28;20079;-64
2023/05/10 08:06:15;;;;;;;30.60;21.40;;;;;;;13.44;100.00;100922.66;5053297;28;20080;-66
2023/05/10 08:08:43;;;;;;;30.85;21.50;;;;;;;13.49;100.00;100933.56;5053721;28;20102;-65
2023/05/10 08:11:10;;;;;;;28.90;20.25;;;;;;;13.53;100.00;100937.38;5053781;28;20041;-66
2023/05/10 08:13:38;;;;;;;26.30;19.60;;;;;;;13.52;100.00;100941.22;5053350;28;20044;-65
2023/05/10 08:16:07;;;;;;;29.17;20.80;;;;;;;13.54;100.00;100944.50;5054398;28;20051;-66
2023/05/10 08:18:35;;;;;;;27.60;20.52;;;;;;;13.59;100.00;100947.19;5052565;28;20087;-66
2023/05/10 08:21:03;;;;;;;30.30;20.95;;;;;;;13.60;100.00;100943.34;5053626;28;20063;-64
2023/05/10 08:23:30;;;;;;;28.00;20.38;;;;;;;13.63;100.00;100948.22;5036070;28;20072;-65
2023/05/10 08:25:58;;;;;;;28.25;20.05;;;;;;;13.66;100.00;100948.78;5067793;28;20056;-65
2023/05/10 08:28:26;;;;;;;26.85;20.15;;;;;;;13.67;100.00;100948.50;5056228;28;20524;-66
2023/05/10 08:30:54;;;;;;;28.48;19.63;;;;;;;13.71;100.00;100949.56;5035938;28;20083;-66
2023/05/10 08:33:22;;;;;;;26.52;19.42;;;;;;;13.73;100.00;100957.47;5053392;28;20455;-65
2023/05/10 08:35:50;;;;;;;28.90;20.17;;;;;;;13.79;100.00;100956.34;5036979;28;20477;-65
2023/05/10 08:38:18;;;;;;;29.08;20.10;;;;;;;13.82;100.00;100962.06;5051939;28;20456;-66
2023/05/10 08:40:49;;;;;;;29.10;20.25;;;;;;;13.83;100.00;100963.72;5035752;28;20045;-64
2023/05/10 08:43:16;;;;;;;25.73;18.52;;;;;;;13.85;100.00;100961.50;5052688;28;20099;-65
2023/05/10 08:45:46;;;;;;;25.20;18.23;;;;;;;13.88;100.00;100962.84;5052185;28;20052;-64
2023/05/10 08:48:15;;;;;;;27.25;19.10;;;;;;;13.92;100.00;100958.41;5055587;28;20132;-65
2023/05/10 08:50:44;;;;;;;27.40;19.88;;;;;;;13.95;100.00;100960.59;5056827;28;20087;-64
2023/05/10 08:53:12;;;;;;;27.38;20.27;;;;;;;13.96;100.00;100962.22;5053625;28;20562;-65
2023/05/10 08:55:42;;;;;;;28.10;19.05;;;;;;;13.93;100.00;100971.03;5036529;28;20159;-65
2023/05/10 08:58:10;;;;;;;33.25;22.02;;;;;;;13.92;100.00;100965.81;5037329;28;20493;-65
2023/05/10 09:00:38;;;;;;;35.20;22.17;;;;;;;13.91;100.00;100969.69;5036101;28;20425;-65
2023/05/10 09:03:06;;;;;;;31.13;22.13;;;;;;;13.85;100.00;100975.19;5037515;28;20136;-64
2023/05/10 09:05:34;;;;;;;29.88;20.83;;;;;;;13.84;100.00;100975.47;5054710;28;20056;-65
2023/05/10 09:08:01;;;;;;;27.05;20.10;;;;;;;13.85;100.00;100988.91;5054870;28;20045;-66
2023/05/10 09:10:30;;;;;;;29.25;19.52;;;;;;;13.83;100.00;100990.28;5055463;28;20041;-66
2023/05/10 09:12:58;;;;;;;25.80;18.70;;;;;;;13.80;100.00;100990.84;5056574;28;20048;-65
2023/05/10 09:15:26;;;;;;;24.35;17.60;;;;;;;13.77;100.00;100996.88;5068252;28;20047;-65
2023/05/10 09:17:55;;;;;;;24.63;17.33;;;;;;;13.76;100.00;101000.75;5076981;28;20041;-65
2023/05/10 09:20:23;;;;;;;24.73;16.83;;;;;;;13.77;100.00;100994.16;5076885;28;20084;-65
2023/05/10 09:22:51;;;;;;;21.58;16.40;;;;;;;13.78;100.00;101001.25;5075285;28;20048;-65
2023/05/10 09:25:19;;;;;;;22.02;14.98;;;;;;;13.83;100.00;101002.06;5057213;28;20059;-64
2023/05/10 09:27:48;;;;;;;25.77;17.73;;;;;;;13.87;100.00;101001.47;5055202;28;20132;-65
2023/05/10 09:30:26;;;;;;;21.45;15.25;;;;;;;13.89;100.00;101004.75;5055826;28;20044;-64
2023/05/10 09:32:55;;;;;;;20.42;14.75;;;;;;;13.91;100.00;101008.84;5055384;28;20107;-65
2023/05/10 09:35:25;;;;;;;19.13;13.77;;;;;;;13.93;100.00;101012.13;5056486;28;20102;-63
2023/05/10 09:37:59;;;;;;;23.98;13.77;;;;;;;13.97;100.00;101013.16;5057658;28;20056;-64
2023/05/10 09:40:29;;;;;;;16.75;11.23;;;;;;;14.04;100.00;101021.88;5026383;28;20055;-65
2023/05/10 09:42:57;;;;;;;21.88;13.23;;;;;;;14.10;100.00;101014.44;5062397;28;20048;-66
2023/05/10 09:45:27;;;;;;;18.45;12.65;;;;;;;14.12;100.00;101016.88;5064024;28;20053;-63
2023/05/10 09:47:55;;;;;;;19.08;13.07;;;;;;;14.11;100.00;101018.81;5065528;28;20040;-64
2023/05/10 09:50:23;;;;;;;20.65;12.75;;;;;;;14.13;100.00;101013.84;5063459;28;20053;-65
2023/05/10 09:52:58;;;;;;;18.38;10.98;;;;;;;14.17;100.00;101027.81;5063979;28;20565;-64
2023/05/10 09:55:41;;;;;;;20.50;12.98;;;;;;;14.14;100.00;101022.88;5055011;28;20124;-67
2023/05/10 09:58:10;;;;;;;19.38;13.15;;;;;;;14.11;100.00;101020.72;5060861;28;20075;-64
2023/05/10 10:00:40;;;;;;;21.92;13.75;;;;;;;14.07;100.00;101028.72;5070202;28;20080;-62
2023/05/10 10:03:19;;;;;;;19.83;12.77;;;;;;;14.04;100.00;101023.78;5065959;28;20519;-62
2023/05/10 10:05:47;;;;;;;15.73;10.00;;;;;;;14.09;100.00;101031.97;5065579;28;20120;-62
2023/05/10 10:08:16;;;;;;;18.40;12.20;;;;;;;14.12;100.00;101020.47;5049070;28;20049;-64
2023/05/10 10:10:45;;;;;;;16.85;11.43;;;;;;;14.16;100.00;101026.97;5041784;28;20437;-65
2023/05/10 10:13:15;;;;;;;16.77;10.02;;;;;;;14.18;100.00;101027.50;5058130;28;20053;-66
2023/05/10 10:15:50;;;;;;;15.23;9.52;;;;;;;14.18;100.00;101029.44;5054257;28;20048;-65
2023/05/10 10:18:23;;;;;;;16.87;9.23;;;;;;;14.18;100.00;101033.00;5056513;28;20131;-66
2023/05/10 10:20:51;;;;;;;13.68;8.38;;;;;;;14.19;100.00;101031.06;5039172;28;20051;-65
2023/05/10 10:23:18;;;;;;;15.75;9.63;;;;;;;14.20;100.00;101027.22;5054680;28;20412;-65
2023/05/10 10:25:48;;;;;;;15.52;9.73;;;;;;;14.20;100.00;101029.97;5055495;28;20036;-64
2023/05/10 10:28:33;;;;;;;15.73;9.15;;;;;;;14.20;100.00;101028.03;5043153;28;20072;-65
2023/05/10 10:31:13;;;;;;;15.57;9.02;;;;;;;14.21;100.00;101034.34;5055346;28;20041;-65
2023/05/10 10:34:00;;;;;;;15.80;9.23;;;;;;;14.22;100.00;101033.25;5055167;28;20044;-65
2023/05/10 10:36:28;;;;;;;15.75;9.23;;;;;;;14.22;100.00;101039.53;5054087;28;20045;-67
2023/05/10 10:39:01;;;;;;;14.80;9.48;;;;;;;14.20;100.00;101035.47;5033423;28;20045;-65
2023/05/10 10:41:35;;;;;;;12.98;8.68;;;;;;;14.18;100.00;101043.16;5046309;28;20072;-65
2023/05/10 10:44:38;;;;;;;15.48;9.00;;;;;;;14.15;100.00;101038.25;5053833;28;20453;-66
2023/05/10 10:47:18;;;;;;;12.75;8.70;;;;;;;14.16;100.00;101043.41;5064475;28;20060;-65
2023/05/10 10:50:03;;;;;;;14.52;9.82;;;;;;;14.19;100.00;101039.28;5074585;28;20400;-66
2023/05/10 10:52:41;;;;;;;13.77;8.90;;;;;;;14.21;100.00;101031.59;5073728;28;20058;-66
2023/05/10 10:55:19;;;;;;;13.57;8.32;;;;;;;14.27;100.00;101027.72;5073617;28;20053;-65
2023/05/10 10:58:00;;;;;;;15.13;9.10;;;;;;;14.32;100.00;101026.84;5055190;28;20068;-64
2023/05/10 11:00:31;;;;;;;16.95;10.25;;;;;;;14.35;100.00;101032.56;5056858;28;20074;-64
2023/05/10 11:03:18;;;;;;;15.20;10.35;;;;;;;14.32;100.00;101024.13;5056771;28;20053;-65
2023/05/10 11:05:47;;;;;;;19.77;11.73;;;;;;;14.32;100.00;101035.09;4345016;28;10000277;-65
2023/05/10 11:08:27;;;;;;;16.55;10.82;;;;;;;14.32;100.00;101040.56;5031873;28;20053;-65
2023/05/10 11:11:08;;;;;;;18.13;10.60;;;;;;;14.33;100.00;101036.72;5060743;28;20045;-66
2023/05/10 11:13:40;;;;;;;16.98;11.73;;;;;;;14.37;100.00;101038.59;5069482;28;20459;-66
2023/05/10 11:16:19;;;;;;;18.90;12.70;;;;;;;14.39;100.00;101041.06;5070594;28;20088;-65